This is the latest recevied weather packets stored in our database for station/object AJ1L. If no packets are shown the sender has not sent any weather packets the latest 10 day(s).
| Time | Temp. | Humidity | Pressure | Rain* | Wind** | Luminosity | Snow |
|---|---|---|---|---|---|---|---|
| 1788298212 | 17.78° C | 88% | 1018.5 hPa | 0 mm | - | - | - |
| 1788297212 | 18.33° C | 88% | 1018.3 hPa | 0 mm | - | - | - |
| 1788296212 | 18.33° C | 88% | 1018 hPa | 0 mm | - | - | - |
| 1788295212 | 17.78° C | 88% | 1017.8 hPa | 0 mm | - | - | - |
| 1788294212 | 17.78° C | 87% | 1017.8 hPa | 0 mm | - | - | - |
| 1788293212 | 17.78° C | 87% | 1017.6 hPa | 0 mm | - | - | - |
| 1788292212 | 17.78° C | 87% | 1017.8 hPa | 0 mm | - | - | - |
| 1788291212 | 17.78° C | 86% | 1017.7 hPa | 0 mm | - | - | - |
| 1788290212 | 17.78° C | 86% | 1017.5 hPa | 0.25 mm | - | - | - |
| 1788289212 | 17.78° C | 85% | 1017.5 hPa | 0.25 mm | - | - | - |
| 1788288212 | 18.33° C | 85% | 1017.6 hPa | 0.25 mm | - | - | - |
| 1788287212 | 18.89° C | 85% | 1017.6 hPa | 0.25 mm | - | - | - |
| 1788286212 | 19.44° C | 83% | 1017.3 hPa | 0 mm | - | - | - |
| 1788285212 | 20° C | 81% | 1017.1 hPa | 0 mm | - | - | - |
| 1788284212 | 20.56° C | 82% | 1017.1 hPa | 0 mm | - | - | - |
| 1788283212 | 21.11° C | 81% | 1017.1 hPa | 0 mm | - | - | - |
| 1788282212 | 20.56° C | 82% | 1017.3 hPa | 0 mm | - | - | - |
| 1788281212 | 21.11° C | 81% | 1017 hPa | 0 mm | - | - | - |
| 1788280212 | 20.56° C | 85% | 1016.9 hPa | 0 mm | - | - | - |
| 1788279212 | 20.56° C | 87% | 1017 hPa | 0 mm | - | - | - |
| 1788278212 | 20.56° C | 88% | 1017 hPa | 0 mm | - | - | - |
| 1788277212 | 20.56° C | 88% | 1017.2 hPa | 0 mm | - | - | - |
| 1788276212 | 20.56° C | 88% | 1017.4 hPa | 0 mm | - | - | - |
| 1788275212 | 20.56° C | 89% | 1017.5 hPa | 0 mm | - | - | - |
| 1788274233 | 20° C | 91% | 1017.6 hPa | 0.25 mm | - | - | - |
* Rain latest hour (hover to see other rain measurements)
** Current wind speed in m/s (hover to see current wind gust speed)